Tiempo atmosférico en la estación meteorológica de San Vicente de la Barquera, Cantabria (39 m.)



Fecha
DESCASC
Temp. máxima en grados centígrados (hora)
DESCASC
Temp. mínima en grados centígrados (hora)
DESCASC
Temp. media en grados centígrados
DESCASC
Racha de viento máxima en m/sg (hora)
DESCASC
Velocidad máxima media en intervalos de 10 minutos(hora)
DESCASC
Precipitaciones diarias en mm
DESCASC
Precipitaciones de 00:00 a 06:00 en mm
DESCASC
Precipitaciones de 06:00 a 12:00 en mm
DESCASC
Precipitaciones de 12:00 a 18:00 en mm
DESCASC
Precipitaciones de 18:00 a 24:00 en mm
DESCASC
16-01-2020 19.7 (15:10) 7.3 (00:50) 13.5 12.5 (20:00) 6.39 (20:30) 0 0 0 0 0
15-01-2020 18.4 (06:00) 7.6 (23:59) 13 15 (09:40) 9.17 (09:40) 0.4 0 0.4 0 0
14-01-2020 19 (15:40) 12.9 (00:30) 15.9 10 (15:40) 3.61 (15:40) 0 0 0 0 0
13-01-2020 16.3 (14:20) 4.6 (03:00) 10.4 5.56 (06:50) 4.44 (06:50) 0 0 0 0 0
12-01-2020 16.6 (13:40) 3.4 (00:00) 10 5.83 (08:30) 4.17 (08:50) 0 0 0 0 0
11-01-2020 12.4 (12:40) 3.8 (00:00) 8.1 5 (08:10) 3.89 (07:40) 0 0 0 0 0
10-01-2020 12.3 (13:10) 8.3 (00:00) 10.3 18.06 (00:40) 8.61 (01:40) 3.7 3.2 0.3 0.1 0.1
09-01-2020 19.3 (12:30) 7.3 (00:00) 13.3 21.94 (15:20) 15 (15:20) 0.6 0 0 0.6 0
08-01-2020 17.1 (13:20) 5.6 (00:00) 11.4 5.56 (04:40) 4.44 (04:00) 0 0 0 0 0
07-01-2020 13.3 (13:30) 4.7 (00:00) 9 5 (04:40) 4.17 (04:40) 0 0 0 0 0
06-01-2020 13.4 (13:00) 3.1 (00:00) 8.2 5.83 (18:20) 3.61 (08:20) 0 0 0 0 0
05-01-2020 12.6 (15:50) 3.4 (00:00) 8 6.67 (16:50) 3.89 (08:50) 0 0 0 0 0
04-01-2020 12 (14:50) 7.5 (00:00) 9.8 6.67 (02:50) 3.33 (02:50) 3.4 2.8 0.6 0 0
03-01-2020 12.9 (17:30) 7.3 (00:00) 10.1 7.5 (18:00) 4.72 (18:10) 2.2 0 0.1 0.6 1.5
02-01-2020 11.7 (12:40) 2.6 (00:00) 7.1 6.11 (15:00) 3.89 (06:50) 0 0 0 0 0
01-01-2020 13.7 (13:00) 4.2 (00:00) 8.9 5.28 (06:20) 3.89 (23:20) 0 0 0 0 0
31-12-2019 15.4 (13:40) 3.8 (00:00) 9.6 5.28 (08:30) 4.17 (03:40) 0 0 0 0 0
30-12-2019 12.7 (12:50) 3.4 (00:00) 8 5 (23:59) 4.17 (23:30) 0 0 0 0 0
29-12-2019 12.9 (13:10) 2.7 (00:00) 7.8 5 (04:30) 4.44 (05:20) 0 0 0 0 0
28-12-2019 13.3 (15:10) 2.8 (00:00) 8.1 5 (04:40) 4.17 (04:50) 0 0 0 0 0
27-12-2019 13.7 (16:10) 3.5 (00:00) 8.6 5.28 (07:10) 4.17 (09:30) 0 0 0 0 0
26-12-2019 17.8 (00:40) 5.7 (00:00) 11.7 8.33 (01:10) 5 (07:20) 0 0 0 0 0
25-12-2019 16.5 (23:50) 8.9 (00:00) 12.7 5.56 (21:00) 5 (21:00) 0 0 0 0 0
24-12-2019 20.3 (13:20) 9.1 (00:00) 14.7 5.83 (09:10) 4.44 (08:20) 0 0 0 0 0
23-12-2019 16.3 (14:00) 8.1 (00:00) 12.2 7.78 (02:10) 5.28 (02:10) 0 0 0 0 0
22-12-2019 15.5 (00:30) 9.7 (00:00) 12.6 24.17 (00:30) 13.06 (01:00) 0.9 0.1 0 0.8 0
21-12-2019 21.8 (12:30) 5.8 (00:00) 13.8 20.83 (21:40) 12.5 (22:00) 1.5 0 0 1.1 0.4
20-12-2019 13 (12:20) 8.6 (00:00) 10.8 21.67 (02:40) 12.78 (02:40) 13.4 11.8 0 0.8 0.8

Gráficas

Temp. máximas Temp. mínimas Temp. medias Precipitaciones Rachas de viento máximas Velocidades máximas media en intervalos de 10 minutos

Datos horarios

Fecha y hora oficial Temperatura (ºC) Velocidad del viento (km/h) Dirección del viento Racha (km/h) Dirección de racha Precipitación (mm) Presión (hPa) Tendencia (hPa) Humedad (%)
2020-01-18 23:00:00 11.5 16 Oeste 29 Oeste 0 1016.5 1.4 69
2020-01-18 22:00:00 11.3 10 Oeste 22 Oeste 0 1016.3 2 71
2020-01-18 21:00:00 11.4 9 Oeste 38 Noroeste 0 1015.8 1.3 75
2020-01-18 20:00:00 11.2 20 Oeste 31 Noroeste 0.2 1015.1 1.1 80
2020-01-18 19:00:00 11 8 Oeste 22 Oeste 0 1014.3 1.2 77
2020-01-18 18:00:00 10.2 6 Sudoeste 29 Oeste 0 1014.5 5.2 84
2020-01-18 17:00:00 10.3 5 Sudoeste 76 Oeste 3 1014 3.2 89
2020-01-18 16:00:00 11.8 45 Noroeste -- -- -- 1013.1 1.2 82
2020-01-18 15:00:00 19.1 4 Sur 16 Sur 0 1009.3 -3.6 48
2020-01-18 14:00:00 16.6 3 Sur 24 Oeste 0 1010.8 -3.8 59
2020-01-18 13:00:00 13.1 18 Oeste 27 Sur 0 1011.9 -3.7 65
2020-01-18 12:00:00 17.4 10 Sur 23 Sur 0 1012.9 -3.9 43
2020-01-18 11:00:00 14.2 6 Sudeste 20 Sur 0 1014.6 -3.9 59
2020-01-18 10:00:00 9 3 Sudeste 18 Sur 0 1015.6 -3.4 78
2020-01-18 09:00:00 6.2 11 Sudoeste 17 Sudoeste 0 1016.8 -3.4 89
2020-01-18 08:00:00 6.7 9 Sudoeste 18 Sur 0 1018.5 -3.3 88
2020-01-18 07:00:00 6.9 11 Sur 17 Sur 0 1019 -3.9 89
2020-01-18 06:00:00 7.4 6 Sudoeste 14 Sur 0 1020.2 -3.4 88
2020-01-18 05:00:00 7.5 4 Sudoeste 10 Sur 0 1021.8 -2.4 87
2020-01-18 04:00:00 8 9 Sur 12 Sudeste 0 1022.9 -2.4 84
2020-01-18 03:00:00 7.9 11 Sur 14 Sur 0 1023.6 -2.1 88
2020-01-18 02:00:00 8.9 10 Sudeste 14 Sudeste 0 1024.2 -2.4 80
2020-01-18 01:00:00 7.8 10 Sur 14 Sur 0 1025.3 -1.8 86
2020-01-18 00:00:00 7.6 11 Sudoeste 14 Sudoeste 0 1025.7 -1.8 89
2020-01-17 23:00:00 7.7 10 Sudoeste 12 Sur 0 1026.6 -1 85
2020-01-17 22:00:00 8.3 10 Sur 12 Sur 0 1027.1 -0.2 83
2020-01-17 21:00:00 8.8 9 Sur 10 Sur 0 1027.5 0.6 83
2020-01-17 20:00:00 9.7 6 Sur 9 Sudoeste 0 1027.6 1.3 75
2020-01-17 19:00:00 10.7 5 Sur 31 Oeste 0 1027.3 1.9 70
2020-01-17 18:00:00 11.3 19 Noroeste 40 Noroeste 0 1026.9 2.1 69
2020-01-17 17:00:00 11.8 24 Noroeste 46 Noroeste 0 1026.3 1.5 62
2020-01-17 16:00:00 12.1 32 Noroeste 44 Noroeste 0 1025.4 0.7 60
2020-01-17 15:00:00 12.4 28 Noroeste 42 Noroeste 0 1024.8 -0.1 61
2020-01-17 14:00:00 12.3 24 Noroeste 39 Noroeste 0 1024.8 0.7 58
2020-01-17 13:00:00 12.6 23 Oeste 40 Oeste 0 1024.7 1.8 56
2020-01-17 12:00:00 12.4 14 Oeste 48 Oeste 0 1024.9 2.9 65
2020-01-17 11:00:00 11.6 26 Oeste 53 Noroeste 0 1024.1 3.2 75
2020-01-17 10:00:00 10.8 27 Noroeste 41 Noroeste 0 1022.9 3.1 84
2020-01-17 09:00:00 9.9 5 Oeste 37 Oeste 0 1022 3.3 76
2020-01-17 08:00:00 10.7 7 Oeste 31 Oeste 0.2 1020.9 3.1 77
2020-01-17 07:00:00 10.8 13 Oeste 41 Oeste 0.7 1019.8 2.4 85
2020-01-17 06:00:00 10.6 13 Oeste 47 Noroeste 2.1 1018.7 2 90
2020-01-17 05:00:00 11.3 32 Noroeste 43 Noroeste 0.9 1017.8 1.4 90
2020-01-17 04:00:00 11.2 10 Sur 14 Sur 0 1017.4 1.4 93
2020-01-17 03:00:00 11.4 8 Sur 14 Sur 0 1016.7 2.4 93
2020-01-17 02:00:00 11.4 7 Sur 20 Oeste 0 1016.4 2.5 93
2020-01-17 01:00:00 12.1 8 Oeste 14 Noroeste 0 1016 1.9 92
2020-01-17 00:00:00 12 0 Calma 9 Sudeste 0 1014.3 0.1 91
2020-01-16 23:00:00 12.3 0 Calma 12 Norte 0 1013.9 1.1 91
2020-01-16 22:00:00 12.4 3 Norte 28 Norte 0 1014.1 3 90
2020-01-16 21:00:00 13.7 13 Norte 41 Norte 0 1014.2 3.6 88
2020-01-16 20:00:00 13.9 21 Norte 45 Noroeste 0 1012.8 2.3 75
2020-01-16 19:00:00 18 4 Sur 32 Sur 0 1011.1 0.7 40
2020-01-16 18:00:00 17.6 4 Sudoeste 30 Sur 0 1010.6 -0.3 42
2020-01-16 17:00:00 18.5 21 Sur 43 Sur 0 1010.5 -0.9 40
2020-01-16 16:00:00 19.1 14 Sur 32 Sur 0 1010.4 -2 39
2020-01-16 15:00:00 18.9 12 Sur 26 Sudoeste 0 1010.9 -2.3 43
2020-01-16 14:00:00 17.8 2 Sudoeste 16 Oeste 0 1011.4 -2.1 48
2020-01-16 13:00:00 17.2 0 Calma 14 Sudoeste 0 1012.4 -0.5 51
2020-01-16 12:00:00 18.2 2 Sur 11 Sudoeste 0 1013.2 0.9 46
2020-01-16 11:00:00 18 2 Oeste 33 Sudoeste 0 1013.5 1.4 47
2020-01-16 10:00:00 18 0 Calma 19 Sur 0 1012.9 0.7 48
2020-01-16 09:00:00 18.1 2 Sur 25 Sur 0 1012.3 -0.4 46
2020-01-16 08:00:00 16.9 6 Sur 22 Sur 0 1012.1 -0.5 50
2020-01-16 07:00:00 15.2 2 Sudoeste 15 Oeste 0 1012.2 -0.8 56
2020-01-16 06:00:00 14.5 2 Sudoeste 15 Oeste 0 1012.7 -0.6 50
2020-01-16 05:00:00 13.8 4 Sudoeste 20 Sur 0 1012.6 -0.5 69
2020-01-16 04:00:00 8.9 8 Sur 14 Sur 0 1013 -1 93
2020-01-16 03:00:00 9.2 3 Sudeste 18 Sudoeste 0 1013.3 -1.8 85
2020-01-16 02:00:00 8.9 12 Sur 27 Sudoeste 0 1013.1 -2.9 88
2020-01-16 01:00:00 7.5 8 Sur 16 Sur 0 1014 -2 96
2020-01-16 00:00:00 7.6 10 Sur 15 Sur 0 1015.1 -1.4 96
2020-01-15 23:00:00 8.1 9 Sur 13 Sur 0 1016 -1.1 95
2020-01-15 22:00:00 9.7 7 Sur 11 Sur 0 1016 -1.4 94
2020-01-15 21:00:00 11 6 Este 12 Este 0 1016.5 -0.7 91
2020-01-15 20:00:00 11.1 6 Sudeste 16 Sudeste 0 1017.1 0.6 88
2020-01-15 19:00:00 11.8 7 Sudeste 12 Sur 0 1017.4 1.4 88
2020-01-15 18:00:00 12.3 4 Sur 8 Sur 0 1017.2 2 88
2020-01-15 17:00:00 12.8 0 Calma 7 Este 0 1016.5 1.5 89
2020-01-15 16:00:00 12.7 4 Nordeste 21 Norte 0 1016 1.6 89
2020-01-15 15:00:00 13.1 8 Noroeste 21 Noroeste 0 1015.2 2.3 85
2020-01-15 14:00:00 13 13 Oeste 26 Noroeste 0 1015 1.5 87
2020-01-15 13:00:00 13.6 10 Noroeste 22 Nordeste 0 1014.4 2.4 88
2020-01-15 12:00:00 13.5 9 Este 22 Este 0 1012.9 5 86
2020-01-15 11:00:00 12.8 6 Noroeste 40 Noroeste 0.2 1013.5 6.7 90
2020-01-15 10:00:00 12.6 25 Noroeste 54 Noroeste 0.2 1012 6.4 87
2020-01-15 09:00:00 17.9 9 Sudoeste 34 Sudeste 0 1007.9 2.8 43
2020-01-15 08:00:00 17.6 10 Sur 45 Sudoeste 0 1006.8 1.5 43
2020-01-15 07:00:00 17.9 4 Sudoeste 36 Oeste 0 1005.6 0.7 43
2020-01-15 06:00:00 18.2 4 Sudoeste 37 Sur 0 1005.1 0.1 42
2020-01-15 05:00:00 17.7 4 Sudoeste 39 Sudoeste 0 1005.3 0.3 43
2020-01-15 04:00:00 17.6 8 Sudoeste 35 Sudoeste 0 1004.9 -1.3 43
2020-01-15 03:00:00 17.5 9 Sudoeste 46 Sudoeste 0 1005 -2.1 43
2020-01-15 02:00:00 17.2 10 Sudoeste 35 Sudoeste 0 1005 -2.8 43
2020-01-15 01:00:00 15.4 6 Sur 17 Sur 0 1006.2 -1.2 47
2020-01-15 00:00:00 14.8 7 Sur 17 Sur 0 1007.1 -0.1 48
2020-01-14 23:00:00 14.5 6 Sudoeste 30 Sudoeste 0 1007.8 0.3 47
2020-01-14 22:00:00 16.6 6 Sudoeste 30 Sudoeste 0 1007.4 0.1 41
2020-01-14 21:00:00 16.5 7 Sudoeste 31 Sur 0 1007.2 0.9 43
2020-01-14 20:00:00 15.9 4 Sudoeste 30 Sudoeste 0 1007.5 1.3 42
2020-01-14 19:00:00 16.4 6 Sudoeste 32 Sudoeste 0 1007.3 1 41
2020-01-14 18:00:00 16.6 5 Sudoeste 33 Sur 0 1006.3 -0.6 40
2020-01-14 17:00:00 16.4 11 Sur 31 Sur 0 1006.2 -1.4 41
2020-01-14 16:00:00 18.2 13 Sur 36 Sur 0 1006.3 -1.4 37
2020-01-14 15:00:00 17.5 6 Sudeste 22 Sudeste 0 1006.9 -1.1 53
2020-01-14 14:00:00 16.1 10 Noroeste 17 Oeste 0 1007.6 0.2 62
2020-01-14 13:00:00 15 6 Noroeste 14 Noroeste 0 1007.7 0.6 68
2020-01-14 12:00:00 16.5 2 Oeste 22 Oeste 0 1008 0.7 43
2020-01-14 11:00:00 17 6 Sudoeste 23 Sur 0 1007.4 0.3 43
2020-01-14 10:00:00 16.3 5 Sur 27 Sur 0 1007.1 0 47
2020-01-14 09:00:00 15.3 0 Calma 8 Sudoeste 0 1007.3 0.4 49
2020-01-14 08:00:00 15.7 3 Sudoeste 19 Sur 0 1007.1 0 46
2020-01-14 07:00:00 16.1 7 Sur 20 Sur 0 1007.1 -0.4 44
2020-01-14 06:00:00 15.4 5 Sur 15 Sur 0 1006.9 -0.7 45
2020-01-14 05:00:00 15.6 7 Sur 17 Sudoeste 0 1007.1 -0.9 42
2020-01-14 04:00:00 15.6 7 Sur 16 Sur 0 1007.5 -1.1 43
2020-01-14 03:00:00 15.5 0 Calma 20 Sudoeste 0 1007.6 -1.3 40
2020-01-14 02:00:00 14.9 0 Calma 20 Sur 0 1008 -1.1 40
2020-01-14 01:00:00 14 0 Calma 14 Sudoeste 0 1008.6 -1.5 43
2020-01-14 00:00:00 14.1 0 Calma 15 Sur 0 1008.9 -1.4 45
2020-01-13 23:00:00 14.4 2 Sur 15 Sur 0 1009.1 -1.2 37
2020-01-13 22:00:00 12.1 8 Sudoeste 18 Sudoeste 0 1010.1 0.9 42
2020-01-13 21:00:00 11.9 0 Calma 14 Oeste 0 1010.3 1.2 42
2020-01-13 20:00:00 12.5 7 Oeste 14 Oeste 0 1010.3 0.4 47
2020-01-13 19:00:00 10.9 6 Sudoeste 15 Sudoeste 0 1009.2 -1.2 61
2020-01-13 18:00:00 13.1 10 Sudoeste 15 Sudoeste 0 1009.1 -1.8 57
2020-01-13 17:00:00 14.5 3 Sudoeste 10 Sudoeste 0 1009.9 -2.4 61
2020-01-13 16:00:00 15.2 5 Sudeste 9 Sudeste 0 1010.4 -3.7 54
2020-01-13 15:00:00 15.1 0 Calma 7 Este 0 1010.9 -4.9 59
2020-01-13 14:00:00 15.7 0 Calma 8 Sur 0 1012.3 -4.4 59
2020-01-13 13:00:00 14.1 7 Sur 13 Sudoeste 0 1014.1 -2.4 61
2020-01-13 12:00:00 10.9 11 Sur 18 Sur 0 1015.8 -0.5 67
2020-01-13 11:00:00 9 9 Sudoeste 19 Sudoeste 0 1016.7 0.1 66
2020-01-13 10:00:00 7.1 12 Sur 15 Sudoeste 0 1016.5 -1 74
2020-01-13 09:00:00 7.2 10 Sudoeste 19 Sudoeste 0 1016.3 -1.6 66
2020-01-13 08:00:00 6.1 16 Sur 20 Sur 0 1016.6 -2.2 87
2020-01-13 07:00:00 5.6 16 Sur 20 Sur 0 1017.5 -2.2 88
2020-01-13 06:00:00 5.7 12 Sudoeste 18 Sudoeste 0 1017.9 -2.7 81
2020-01-13 05:00:00 5.9 14 Sudoeste 18 Sudoeste 0 1018.8 -2.4 78
2020-01-13 04:00:00 5.1 14 Sudoeste 17 Sur 0 1019.7 -2.4 85
2020-01-13 03:00:00 4.6 14 Sudoeste 17 Sudoeste 0 1020.6 -2.2 90
2020-01-13 02:00:00 5.1 14 Sudoeste 17 Sudoeste 0 1021.2 -1.9 87
2020-01-13 01:00:00 5.3 13 Sudoeste 18 Sudoeste 0 1022.1 -1.4 86
2020-01-13 00:00:00 5.9 13 Sudoeste 18 Sudoeste 0 1022.8 -1.4 84
2020-01-12 23:00:00 6.1 14 Sudoeste 17 Sudoeste 0 1023.1 -1.5 84
2020-01-12 22:00:00 6.8 13 Sudoeste 16 Sudoeste 0 1023.5 -1.3 83
2020-01-12 21:00:00 7.8 13 Sudoeste 15 Sudoeste 0 1024.2 -0.4 81
2020-01-12 20:00:00 8.6 11 Sudoeste 13 Sudoeste 0 1024.6 0 78
2020-01-12 19:00:00 9.8 8 Sur 9 Sudoeste 0 1024.8 0.2 85
2020-01-12 18:00:00 11.9 0 Calma -- -- 0 1024.6 -0.2 82
2020-01-12 17:00:00 12.3 0 Calma 5 Noroeste 0 1024.6 -0.7 71
2020-01-12 16:00:00 12.9 4 Noroeste 6 Noroeste 0 1024.6 -1.6 65
2020-01-12 15:00:00 13.9 3 Noroeste 4 Noroeste 0 1024.8 -2.2 62
2020-01-12 14:00:00 13.5 0 Calma 5 Sur 0 1025.3 -1.5 56
2020-01-12 13:00:00 14.4 3 Sur 10 Sudoeste 0 1026.2 -0.4 53
2020-01-12 12:00:00 11 4 Sudoeste 17 Sudoeste 0 1027 0.8 62
2020-01-12 11:00:00 7.4 13 Sudoeste 17 Sudoeste 0 1026.8 0.4 78
2020-01-12 10:00:00 4.8 14 Sudoeste 19 Sudoeste 0 1026.6 0.4 84
2020-01-12 09:00:00 3.5 15 Sur 21 Sur 0 1026.2 0.4 85
2020-01-12 08:00:00 3.6 15 Sudoeste 18 Sudoeste 0 1026.4 0.6 83
2020-01-12 07:00:00 3.9 14 Sudoeste 19 Sudoeste 0 1026.2 0.2 83
2020-01-12 06:00:00 4.2 14 Sudoeste 19 Sudoeste 0 1025.8 -0.1 83
2020-01-12 05:00:00 4.3 13 Sudoeste 18 Sudoeste 0 1025.8 0 83
2020-01-12 04:00:00 4.6 14 Sudoeste 20 Sudoeste 0 1026 -0.2 83
2020-01-12 03:00:00 4.2 14 Sudoeste 17 Sudoeste 0 1025.9 -0.5 87
2020-01-12 02:00:00 4.4 13 Sudoeste 17 Sudoeste 0 1025.8 -0.6 87
2020-01-12 01:00:00 4.7 12 Sudoeste 16 Sudoeste 0 1026.2 -0.2 86
2020-01-12 00:00:00 5.2 11 Sudoeste 16 Sudoeste 0 1026.4 0.2 86
2020-01-11 23:00:00 5.4 12 Sur 14 Sur 0 1026.4 0.1 88
2020-01-11 22:00:00 6.1 11 Sudoeste 14 Sur 0 1026.4 0.4 89
2020-01-11 21:00:00 6.6 5 Sudoeste 14 Sudoeste 0 1026.2 0.6 91
2020-01-11 20:00:00 7.8 10 Sudoeste 12 Sudoeste 0 1026.3 1 82
2020-01-11 19:00:00 9.2 7 Sudoeste 9 Sudoeste 0 1026 1 75
2020-01-11 18:00:00 10.7 0 Calma -- -- 0 1025.6 0.4 69
2020-01-11 17:00:00 11.4 0 Calma 6 Noroeste 0 1025.3 -0.4 66
2020-01-11 16:00:00 11.8 3 Noroeste 8 Noroeste 0 1025 -1.8 65
2020-01-11 15:00:00 11.2 4 Norte 8 Este 0 1025.2 -2.6 64
2020-01-11 14:00:00 11 5 Nordeste 8 Norte 0 1025.7 -2.4 71
2020-01-11 13:00:00 11.5 0 Calma 7 Sur 0 1026.8 -1.1 69
2020-01-11 12:00:00 10.4 4 Sur 7 Sur 0 1027.8 -0.4 73
2020-01-11 11:00:00 7.8 6 Sudoeste 15 Sudoeste 0 1028.1 -0.2 82
2020-01-11 10:00:00 4.7 12 Sudoeste 16 Sudoeste 0 1027.9 -0.3 93
2020-01-11 09:00:00 3.8 12 Sudoeste 18 Sudoeste 0 1028.2 -0.2 92
2020-01-11 08:00:00 4.2 14 Sur 18 Sur 0 1028.3 -0.3 93
2020-01-11 07:00:00 4.3 14 Sudoeste 17 Sudoeste 0 1028.2 -0.8 94
2020-01-11 06:00:00 4.5 13 Sudoeste 18 Sudoeste 0 1028.4 -0.7 94
2020-01-11 05:00:00 4.9 13 Sudoeste 17 Sudoeste 0 1028.6 -0.8 94
2020-01-11 04:00:00 5.3 13 Sudoeste 17 Sudoeste 0 1029 -0.8 94
2020-01-11 03:00:00 5.4 12 Sudoeste 17 Sudoeste 0 1029.1 -0.9 94
2020-01-11 02:00:00 6.2 11 Sur 14 Sudoeste 0 1029.4 -0.2 94
2020-01-11 01:00:00 7.5 7 Sudoeste 14 Sudoeste 0 1029.8 -0.1 91
2020-01-11 00:00:00 8.7 8 Sudoeste 15 Sudoeste 0 1030 0.3 89
2020-01-10 23:00:00 9 6 Sur 10 Sur 0 1029.6 0.2 91
2020-01-10 22:00:00 9.2 7 Sur 11 Sur 0 1029.9 0.8 90
2020-01-10 21:00:00 9.7 0 Calma 13 Sudoeste 0 1029.7 1.2 89
2020-01-10 20:00:00 9.7 6 Sudoeste 14 Norte 0 1029.4 1.1 90
2020-01-10 19:00:00 10.6 8 Norte 20 Norte 0.1 1029.1 1 89
2020-01-10 18:00:00 10.9 0 Calma 9 Oeste 0 1028.5 0.9 80
2020-01-10 17:00:00 11.3 2 Oeste 21 Oeste 0 1028.3 0.8 78
2020-01-10 16:00:00 11.8 13 Oeste 27 Oeste 0 1028.1 0.1 76
2020-01-10 15:00:00 12.1 16 Oeste 26 Oeste 0 1027.6 -0.7 75
2020-01-10 14:00:00 12 17 Oeste 30 Oeste 0 1027.5 -0.2 75
2020-01-10 13:00:00 12 14 Oeste 24 Oeste 0.1 1028 1 74
2020-01-10 12:00:00 11 13 Oeste 36 Oeste 0 1028.3 2.1 78
2020-01-10 11:00:00 10.8 14 Oeste 37 Oeste 0 1027.7 1.7 77
2020-01-10 10:00:00 9.1 0 Calma 21 Oeste 0 1027 1.5 77
2020-01-10 09:00:00 9.5 16 Oeste 30 Oeste 0 1026.2 1.5 75
2020-01-10 08:00:00 9.3 13 Oeste 48 Oeste 0.1 1026 2.1 74
2020-01-10 07:00:00 9.3 21 Oeste 48 Oeste 0.2 1025.5 1.6 80
2020-01-10 06:00:00 9.5 18 Oeste 42 Oeste 0.3 1024.7 0.9 82
2020-01-10 05:00:00 8.4 10 Oeste 42 Oeste 0.7 1023.9 1 87
2020-01-10 04:00:00 8.7 10 Oeste 41 Oeste 1.4 1023.9 1.3 83
2020-01-10 03:00:00 9.3 4 Oeste 47 Noroeste 0.6 1023.8 1.7 89
2020-01-10 02:00:00 10 28 Noroeste 50 Oeste 0.2 1022.9 1.4 81
2020-01-10 01:00:00 10.2 19 Oeste 65 Oeste 0 1022.6 1.5 71
2020-01-10 00:00:00 10.9 26 Noroeste 67 Noroeste 0 1022.1 1.9 70
2020-01-09 23:00:00 11.8 24 Oeste 42 Oeste 0 1021.5 2.1 59
2020-01-09 22:00:00 11.4 20 Oeste 42 Oeste 0 1021.1 1.9 56
2020-01-09 21:00:00 11.5 19 Oeste 46 Oeste 0 1020.2 1.4 63
2020-01-09 20:00:00 11.6 21 Oeste 40 Oeste 0 1019.4 0.8 74
2020-01-09 19:00:00 11.1 5 Oeste 16 Oeste 0 1019.2 1.6 79
2020-01-09 18:00:00 11.1 10 Oeste 52 Noroeste 0.3 1018.8 3.7 86
2020-01-09 17:00:00 11.1 35 Oeste 63 Oeste 0.3 1018.6 6.3 85
2020-01-09 16:00:00 11.7 42 Oeste 79 Noroeste 0 1017.6 4.2 83
2020-01-09 15:00:00 14.2 40 Noroeste 69 Noroeste 0 1015.1 0.5 71
2020-01-09 14:00:00 15.9 8 Noroeste 18 Noroeste 0 1012.3 -3.6 59
2020-01-09 13:00:00 16.6 7 Oeste 16 Noroeste 0 1013.4 -2.9 61
2020-01-09 12:00:00 17.5 9 Sur 15 Sur 0 1014.6 -2 54
2020-01-09 11:00:00 14.5 9 Sudoeste 19 Sur 0 1015.9 -1.1 59
2020-01-09 10:00:00 10.5 15 Sudoeste 21 Sudoeste 0 1016.3 -1.6 70
2020-01-09 09:00:00 9.5 16 Sudoeste 22 Sudoeste 0 1016.6 -1.3 70
2020-01-09 08:00:00 7.7 17 Sur 19 Sur 0 1017 -1.2 84
2020-01-09 07:00:00 9.1 13 Sudoeste 20 Sudoeste 0 1017.9 -1 74
2020-01-09 06:00:00 9.4 11 Sudoeste 19 Sur 0 1017.9 -1.9 70
2020-01-09 05:00:00 9 15 Sur 20 Sudoeste 0 1018.2 -2.2 74
2020-01-09 04:00:00 8.7 15 Sur 20 Sur 0 1018.9 -1.9 78
2020-01-09 03:00:00 8 9 Sudoeste 18 Sur 0 1019.8 -1.6 79
2020-01-09 02:00:00 8.2 9 Sudoeste 17 Sudoeste 0 1020.4 -1.9 76
2020-01-09 01:00:00 8.4 13 Sudoeste 18 Sudoeste 0 1020.8 -1.8 78
2020-01-09 00:00:00 7.8 15 Sudoeste 17 Sudoeste 0 1021.4 -0.8 82
2020-01-08 23:00:00 8.5 11 Sur 15 Sudoeste 0 1022.3 -0.2 84
2020-01-08 22:00:00 9.9 9 Sudoeste 14 Sur 0 1022.6 -0.2 78
2020-01-08 21:00:00 10.2 8 Sudoeste 13 Sudoeste 0 1022.2 -1 78
2020-01-08 20:00:00 11.1 8 Sudoeste 10 Sur 0 1022.5 -0.7 80
2020-01-08 19:00:00 11.7 8 Sur 13 Este 0 1022.8 -0.6 75
2020-01-08 18:00:00 13 2 Sudeste 10 Este 0 1023.2 -0.6 65
2020-01-08 17:00:00 13.8 4 Este 9 Este 0 1023.2 -0.9 68
2020-01-08 16:00:00 14.2 0 Calma 5 Este 0 1023.4 -1.4 63
2020-01-08 15:00:00 13.3 0 Calma 6 Norte 0 1023.8 -2.1 65
2020-01-08 14:00:00 13.5 4 Norte 8 Nordeste 0 1024.1 -2.1 56
2020-01-08 13:00:00 15.9 4 Sur 12 Sudoeste 0 1024.8 -1.1 47
2020-01-08 12:00:00 12.9 8 Sudoeste 15 Sudoeste 0 1025.9 0.2 56
2020-01-08 11:00:00 9.4 12 Sudoeste 17 Sudoeste 0 1026.2 0.6 69
2020-01-08 10:00:00 8.3 14 Sudoeste 19 Sudoeste 0 1025.9 0.3 64
2020-01-08 09:00:00 6.9 15 Sudoeste 18 Sur 0 1025.7 0.3 78
2020-01-08 08:00:00 6.8 14 Sudoeste 19 Sudoeste 0 1025.6 0.3 74
2020-01-08 07:00:00 6 15 Sudoeste 19 Sur 0 1025.6 -0.1 80
2020-01-08 06:00:00 6 13 Sudoeste 19 Sudoeste 0 1025.4 -0.5 83
2020-01-08 05:00:00 6.2 14 Sudoeste 20 Sudoeste 0 1025.3 -0.7 79
2020-01-08 04:00:00 6 16 Sudoeste 18 Sudoeste 0 1025.7 -0.4 79
2020-01-08 03:00:00 5.7 13 Sur 18 Sudoeste 0 1025.9 -0.4 82
2020-01-08 02:00:00 6.1 12 Sudoeste 15 Sudoeste 0 1026 -0.7 84
2020-01-08 01:00:00 6.5 13 Sudoeste 16 Sudoeste 0 1026.1 -0.8 84
2020-01-08 00:00:00 5.9 13 Sudoeste 16 Sudoeste 0 1026.3 -0.6 91
2020-01-07 23:00:00 6.4 12 Sudoeste 14 Sudoeste 0 1026.7 0.1 91
2020-01-07 22:00:00 7.3 11 Sudoeste 13 Sudoeste 0 1026.9 0.5 93
2020-01-07 21:00:00 7.5 10 Sudoeste 13 Sudoeste 0 1026.9 0.9 91
2020-01-07 20:00:00 10 7 Sudoeste 10 Sudoeste 0 1026.6 0.4 89
2020-01-07 19:00:00 9.7 5 Sudoeste 7 Sudoeste 0 1026.4 0.3 88
2020-01-07 18:00:00 11.3 4 Oeste 14 Oeste 0 1026 -0.2 83
2020-01-07 17:00:00 11.6 11 Oeste 15 Oeste 0 1026.2 0 80
2020-01-07 16:00:00 12.4 10 Oeste 17 Oeste 0 1026.1 -0.8 78
2020-01-07 15:00:00 12.8 10 Noroeste 18 Noroeste 0 1026.2 -1.6 75
2020-01-07 14:00:00 12.8 9 Noroeste 18 Noroeste 0 1026.2 -1.4 71
2020-01-07 13:00:00 12.8 11 Oeste 15 Oeste 0 1026.9 -0.3 67
2020-01-07 12:00:00 12.1 8 Oeste 15 Oeste 0 1027.8 1.8 67
2020-01-07 11:00:00 10.4 5 Sudoeste 15 Sudoeste 0 1027.6 1.8 68
2020-01-07 10:00:00 6.3 11 Sudoeste 17 Sudoeste 0 1027.2 1.2 78
2020-01-07 09:00:00 5.7 13 Sudoeste 16 Sudoeste 0 1026 0 81
2020-01-07 08:00:00 4.8 13 Sudoeste 17 Sudoeste 0 1025.8 -0.5 87
2020-01-07 07:00:00 5.1 13 Sudoeste 17 Sudoeste 0 1026 -0.6 86
2020-01-07 06:00:00 5.3 14 Sudoeste 18 Sudoeste 0 1026 -0.8 88
2020-01-07 05:00:00 5.3 13 Sudoeste 18 Sur 0 1026.3 -0.6 88
2020-01-07 04:00:00 5.7 14 Sudoeste 17 Sur 0 1026.6 -0.5 90
2020-01-07 03:00:00 5.8 14 Sudoeste 17 Sudoeste 0 1026.8 -1 91
2020-01-07 02:00:00 5.5 13 Sudoeste 17 Sudoeste 0 1026.9 -0.8 91
2020-01-07 01:00:00 5.5 14 Sudoeste 17 Sudoeste 0 1027.1 -0.1 93
2020-01-07 00:00:00 6.1 13 Sudoeste 15 Sur 0 1027.8 0.4 93
2020-01-06 23:00:00 7.1 12 Sudoeste 16 Sudoeste 0 1027.7 0.3 91
2020-01-06 22:00:00 6.7 13 Sudoeste 15 Sudoeste 0 1027.2 0.1 92
2020-01-06 21:00:00 8.1 10 Sudoeste 13 Sudoeste 0 1027.4 1.7 88
2020-01-06 20:00:00 8.1 8 Sudoeste 13 Sur 0 1027.4 2.9 87
2020-01-06 19:00:00 9.2 9 Sur 21 Noroeste 0 1027.1 2.9 83
2020-01-06 18:00:00 11.4 12 Norte 17 Norte 0 1025.7 2 76
2020-01-06 17:00:00 11.4 3 Sur 15 Oeste 0 1024.5 0.4 75
2020-01-06 16:00:00 12 11 Oeste 18 Oeste 0 1024.2 0 72
2020-01-06 15:00:00 12.6 9 Oeste 18 Oeste 0 1023.7 -0.9 74
2020-01-06 14:00:00 12.7 12 Oeste 18 Noroeste 0 1024.1 0 72
2020-01-06 13:00:00 13.1 5 Oeste 12 Oeste 0 1024.2 0.1 65
2020-01-06 12:00:00 10.9 8 Sur 14 Sudoeste 0 1024.6 0.1 68
2020-01-06 11:00:00 7.7 9 Sur 15 Sudoeste 0 1024.1 0.7 78
2020-01-06 10:00:00 5.9 10 Sudoeste 16 Sudoeste 0 1024.1 1 85